ADDS METAR Data INFO
IDs: Format: Raw Decoded Include TAF

Data at: 0213 UTC 17 Aug 2018

PACM 170156Z AUTO 25011KT 10SM CLR 13/08 A3001 RMK AO2 SLP158 T01330078
PACM 170056Z AUTO 26009KT 10SM CLR 13/08 A3001 RMK AO2 SLP158 T01330078
PACM 162356Z AUTO 26012KT 10SM CLR 13/07 A3002 RMK AO2 SLP160 T01330072 10139 20117 53003
PACM 162256Z AUTO 26011KT 10SM CLR 13/07 A3001 RMK AO2 SLP160 T01330072
PACM 162156Z AUTO 26009KT 10SM CLR 13/08 A3001 RMK AO2 SLP157 T01330078
PACM 162056Z AUTO 28008KT 10SM CLR 13/09 A3001 RMK AO2 SLP158 T01330094 55001
PACM 161956Z AUTO 27007KT 10SM CLR 13/09 A3001 RMK AO2 SLP157 T01330089
PACM 161856Z AUTO 28005KT 10SM CLR 13/08 A3001 RMK AO2 SLP158 T01280083
PACM 161756Z AUTO 00000KT 10SM CLR 12/09 A3001 RMK AO2 SLP158 T01170089 10117 20094 51003
PACM 161656Z AUTO 00000KT 10SM CLR 11/08 A3001 RMK AO2 SLP157 T01060078
PACM 161556Z AUTO 17004KT 10SM CLR 10/07 A3001 RMK AO2 SLP157 T01000072
PACM 161456Z AUTO 18004KT 10SM CLR 09/07 A3000 RMK AO2 SLP156 T00940072 58003
PACM 161356Z AUTO 17004KT 10SM CLR 09/07 A3001 RMK AO2 SLP157 T00940072
PACM 161256Z AUTO 17003KT 10SM FEW060 09/07 A3001 RMK AO2 SLP159 T00940072
PACM 161156Z AUTO 00000KT 10SM BKN060 10/07 A3001 RMK AO2 SLP159 T01000067 10133 20094 50001
PACM 161056Z AUTO 00000KT 10SM FEW060 10/07 A3001 RMK AO2 SLP160 T01000067
PACM 160956Z AUTO 00000KT 10SM BKN060 11/08 A3001 RMK AO2 SLP159 T01060078
PACM 160856Z AUTO 23003KT 10SM OVC060 11/08 A3001 RMK AO2 SLP158 T01060078 401500056 51007
PACM 160756Z AUTO 22003KT 10SM OVC042 11/08 A3001 RMK AO2 SLP157 T01110083
PACM 160656Z AUTO 24003KT 10SM BKN047 12/09 A3000 RMK AO2 SLP154 T01170089
PACM 160556Z AUTO 32006KT 10SM FEW021 OVC037 13/09 A2999 RMK AO2 SLP151 T01330094 10150 20133 53006
PACM 160545Z AUTO 34006KT 10SM FEW021 SCT026 OVC035 13/09 A2999 RMK AO2
PACM 160527Z AUTO 33009KT 10SM BKN023 OVC029 13/09 A2998 RMK AO2
PACM 160456Z AUTO 32009KT 10SM BKN033 OVC060 13/09 A2998 RMK AO2 SLP147 T01330089
PACM 160356Z AUTO 35008KT 10SM SCT037 OVC060 13/09 A2997 RMK AO2 SLP146 T01330089
PACM 160256Z AUTO 34008KT 10SM FEW028 SCT037 OVC055 14/08 A2997 RMK AO2 SLP145 T01390083 55000
PACM 160156Z AUTO VRB05KT 10SM SCT033 BKN040 OVC060 14/08 A2997 RMK AO2 SLP144 T01440078
PACM 160056Z AUTO 00000KT 10SM SCT036 14/07 A2997 RMK AO2 SLP144 T01440067
PACM 152356Z AUTO VRB04KT 10SM SCT032 BKN055 14/07 A2997 RMK AO2 SLP145 T01390072 10144 20083 58001
PACM 152256Z AUTO 05005KT 10SM FEW029 SCT040 13/07 A2998 RMK AO2 SLP147 T01330072
PACM 152245Z AUTO 06005KT 10SM SCT029 BKN038 13/07 A2998 RMK AO2
PACM 152217Z AUTO VRB03KT 10SM BKN027 13/07 A2998 RMK AO2
PACM 152156Z AUTO 07003KT 10SM SCT025 13/07 A2998 RMK AO2 SLP147 T01280072
PACM 152056Z AUTO 08004KT 10SM CLR 12/07 A2997 RMK AO2 SLP146 T01170067 51005
PACM 151956Z AUTO 06004KT 10SM CLR 11/06 A2997 RMK AO2 SLP146 T01110061
PACM 151856Z AUTO 00000KT 8SM CLR 10/06 A2997 RMK AO2 SLP143 T01000056
PACM 151756Z AUTO 00000KT 10SM CLR 08/06 A2996 RMK AO2 SLP141 T00830061 10089 20056 51012
PACM 151656Z AUTO 00000KT 10SM CLR 07/06 A2995 RMK AO2 SLP137 T00720056
PACM 151556Z AUTO 00000KT 10SM CLR 06/04 A2994 RMK AO2 SLP134 T00610044
PACM 151456Z AUTO 18003KT 10SM CLR 07/04 A2992 RMK AO2 SLP129 T00670039 53006